Time;durP1;ratioP1;P1;durP2;ratioP2;P2;SDS_P1;SDS_P2;PMS_P1;PMS_P2;Temp;Humidity;BMP_temperature;BMP_pressure;BME280_temperature;BME280_humidity;BME280_pressure;Samples;Min_cycle;Max_cycle;Signal;HPM_P1;HPM_P2
2022/04/28 00:01:51;;;;;;;15.40;8.40;;;11.50;98.50;;;;;;4971812;28;20027;-72
2022/04/28 00:04:17;;;;;;;16.75;8.02;;;11.40;98.60;;;;;;4971659;28;20022;-70
2022/04/28 00:06:43;;;;;;;18.35;7.97;;;11.40;97.90;;;;;;4971560;28;20053;-72
2022/04/28 00:09:08;;;;;;;12.43;8.20;;;11.40;98.30;;;;;;4971796;28;20503;-71
2022/04/28 00:11:35;;;;;;;17.83;8.10;;;11.30;98.00;;;;;;4971590;28;20035;-72
2022/04/28 00:14:01;;;;;;;16.23;8.63;;;11.30;98.30;;;;;;4971226;28;20046;-71
2022/04/28 00:16:27;;;;;;;19.30;8.18;;;11.30;97.90;;;;;;4971630;28;20089;-72
2022/04/28 00:18:53;;;;;;;19.77;9.07;;;11.20;98.00;;;;;;4971899;28;20479;-71
2022/04/28 00:21:19;;;;;;;18.88;8.68;;;11.20;98.50;;;;;;4970608;28;20017;-72
2022/04/28 00:23:45;;;;;;;18.38;8.50;;;11.20;98.70;;;;;;4972036;28;20281;-71
2022/04/28 00:26:12;;;;;;;21.00;9.00;;;11.10;98.70;;;;;;4971373;28;20057;-71
2022/04/28 00:28:38;;;;;;;17.67;8.40;;;11.10;97.90;;;;;;4971938;28;20015;-72
2022/04/28 00:31:03;;;;;;;18.38;8.50;;;11.10;98.50;;;;;;4971759;28;20034;-72
2022/04/28 00:33:29;;;;;;;18.25;8.75;;;11.00;98.90;;;;;;4971509;28;20465;-71
2022/04/28 00:35:55;;;;;;;16.85;8.88;;;11.00;97.80;;;;;;4975629;28;20055;-71
2022/04/28 00:38:21;;;;;;;16.50;9.27;;;11.00;99.10;;;;;;4971380;28;20464;-72
2022/04/28 00:40:47;;;;;;;14.82;9.23;;;10.90;98.80;;;;;;4970437;28;20114;-71
2022/04/28 00:43:18;;;;;;;17.65;9.52;;;10.90;98.70;;;;;;4971826;28;20095;-71
2022/04/28 00:45:48;;;;;;;17.42;7.97;;;10.90;98.90;;;;;;4970986;28;20051;-72
2022/04/28 00:51:01;;;;;;;14.85;9.13;;;10.80;99.30;;;;;;4969902;28;20083;-71
2022/04/28 00:53:32;;;;;;;20.95;9.52;;;10.80;99.40;;;;;;4971568;28;20092;-72
2022/04/28 00:55:58;;;;;;;17.20;9.82;;;10.80;98.40;;;;;;4971128;28;20026;-70
2022/04/28 00:58:25;;;;;;;20.27;10.40;;;10.70;98.70;;;;;;4969458;28;20481;-71
2022/04/28 01:00:53;;;;;;;20.23;10.45;;;10.70;99.30;;;;;;4970226;28;20529;-72
2022/04/28 01:03:20;;;;;;;14.18;9.25;;;10.70;99.90;;;;;;4970973;28;20019;-72
2022/04/28 01:05:46;;;;;;;16.75;9.05;;;10.70;99.30;;;;;;4966680;28;20038;-72
2022/04/28 01:08:12;;;;;;;19.08;9.40;;;10.60;98.70;;;;;;4971018;28;20494;-72
2022/04/28 01:10:38;;;;;;;15.27;9.85;;;10.50;98.80;;;;;;4970979;28;20035;-72
2022/04/28 01:13:05;;;;;;;17.60;9.75;;;10.60;99.80;;;;;;4969999;28;20129;-71
2022/04/28 01:15:49;;;;;;;17.08;9.73;;;10.50;99.90;;;;;;4970643;28;20105;-72
2022/04/28 01:18:16;;;;;;;20.75;10.20;;;10.50;99.00;;;;;;4968754;28;20093;-71
2022/04/28 01:20:42;;;;;;;13.07;8.95;;;10.50;99.40;;;;;;4971219;28;20090;-70
2022/04/28 01:23:08;;;;;;;15.70;9.25;;;10.40;99.60;;;;;;4970924;28;20023;-71
2022/04/28 01:25:34;;;;;;;22.77;9.55;;;10.40;98.90;;;;;;4970893;28;20027;-71
2022/04/28 01:28:00;;;;;;;19.67;10.30;;;10.40;99.30;;;;;;4970980;28;20030;-71
2022/04/28 01:30:26;;;;;;;16.40;9.65;;;10.40;99.00;;;;;;4970805;28;20073;-71
2022/04/28 01:32:56;;;;;;;18.25;9.82;;;10.30;99.70;;;;;;4966945;28;20046;-71
2022/04/28 01:35:22;;;;;;;15.13;9.55;;;10.30;99.60;;;;;;4970833;28;20021;-72
2022/04/28 01:37:48;;;;;;;18.58;10.65;;;10.30;99.50;;;;;;4970718;28;20089;-71
2022/04/28 01:40:13;;;;;;;17.35;10.80;;;10.20;98.70;;;;;;4967139;28;20479;-71
2022/04/28 01:42:45;;;;;;;18.23;10.48;;;10.20;99.20;;;;;;4970422;28;20015;-71
2022/04/28 01:45:11;;;;;;;19.02;9.85;;;10.20;99.40;;;;;;4970581;28;20029;-70
2022/04/28 01:47:39;;;;;;;17.05;10.18;;;10.20;99.90;;;;;;4970571;28;20046;-71
2022/04/28 01:50:06;;;;;;;21.15;9.27;;;10.10;99.90;;;;;;4970608;28;20106;-71
2022/04/28 01:55:16;;;;;;;18.77;9.77;;;10.00;99.90;;;;;;4968242;28;20038;-71
2022/04/28 01:57:42;;;;;;;16.85;10.48;;;9.90;99.90;;;;;;4969697;28;20026;-71
2022/04/28 02:00:09;;;;;;;16.88;9.70;;;9.90;99.90;;;;;;4970580;28;20364;-70
2022/04/28 02:02:35;;;;;;;17.95;9.52;;;9.90;99.50;;;;;;4970579;28;20475;-71
2022/04/28 02:05:07;;;;;;;19.80;10.68;;;9.90;99.90;;;;;;4982490;28;20110;-70
2022/04/28 02:07:33;;;;;;;21.88;10.63;;;9.90;99.80;;;;;;4970663;28;20031;-72
2022/04/28 02:09:59;;;;;;;21.42;11.48;;;9.90;99.50;;;;;;4970567;28;20084;-71
2022/04/28 02:12:26;;;;;;;18.40;9.80;;;9.90;99.90;;;;;;4970402;28;20035;-71
2022/04/28 02:14:52;;;;;;;21.92;10.38;;;9.90;99.70;;;;;;4970234;28;20105;-71
2022/04/28 02:17:22;;;;;;;21.70;10.20;;;9.80;99.90;;;;;;4970829;28;20066;-71
2022/04/28 02:19:48;;;;;;;18.15;10.45;;;9.80;99.90;;;;;;4970682;28;20035;-70
2022/04/28 02:22:14;;;;;;;13.45;9.68;;;9.80;99.90;;;;;;4980790;28;20037;-70
2022/04/28 02:24:40;;;;;;;20.27;10.65;;;9.80;99.90;;;;;;4989859;28;20026;-71
2022/04/28 02:27:06;;;;;;;15.90;9.45;;;9.80;99.80;;;;;;4990085;28;20038;-71
2022/04/28 02:29:32;;;;;;;18.98;10.23;;;9.70;99.90;;;;;;4988246;28;20034;-71
2022/04/28 02:31:58;;;;;;;20.15;9.55;;;9.70;99.90;;;;;;4970545;28;20062;-71
2022/04/28 02:34:23;;;;;;;18.67;11.30;;;9.70;99.90;;;;;;4969823;28;20073;-71
2022/04/28 02:36:49;;;;;;;24.65;11.50;;;9.70;99.90;;;;;;4970465;28;20475;-70
2022/04/28 02:39:17;;;;;;;20.45;11.07;;;9.60;99.90;;;;;;4970335;28;20027;-70
2022/04/28 02:41:43;;;;;;;21.75;10.32;;;9.60;99.90;;;;;;4970332;28;20072;-71
2022/04/28 02:44:10;;;;;;;17.27;10.30;;;9.60;99.90;;;;;;4969955;28;20027;-71
2022/04/28 02:46:36;;;;;;;17.25;10.90;;;9.50;99.90;;;;;;4968709;28;20031;-70
2022/04/28 02:49:02;;;;;;;27.67;10.07;;;9.60;99.90;;;;;;4969770;28;20023;-70
2022/04/28 02:51:27;;;;;;;19.10;9.73;;;9.50;99.90;;;;;;4969755;28;20023;-70
2022/04/28 02:53:53;;;;;;;18.60;10.13;;;9.50;99.90;;;;;;4970002;28;20031;-70
2022/04/28 02:56:19;;;;;;;20.75;10.60;;;9.50;99.90;;;;;;4970292;28;20023;-70
2022/04/28 02:58:45;;;;;;;17.20;10.52;;;9.50;99.90;;;;;;4969931;28;20038;-71
2022/04/28 03:01:11;;;;;;;21.85;10.68;;;9.50;99.90;;;;;;4970017;28;20392;-70
2022/04/28 03:03:37;;;;;;;25.83;10.45;;;9.50;99.90;;;;;;4969551;28;20030;-70
2022/04/28 03:11:31;;;;;;;19.02;11.63;;;9.40;99.90;;;;;;4973720;28;20582;-70
2022/04/28 03:13:57;;;;;;;18.83;10.50;;;9.40;99.90;;;;;;4973098;28;20042;-71
2022/04/28 03:16:24;;;;;;;14.70;9.57;;;9.40;99.90;;;;;;4973286;28;20027;-70
2022/04/28 03:18:50;;;;;;;19.73;11.52;;;9.40;99.90;;;;;;4973174;28;20117;-70
2022/04/28 03:21:15;;;;;;;24.65;12.45;;;9.30;99.90;;;;;;4972775;28;20110;-70
2022/04/28 03:23:41;;;;;;;18.35;11.18;;;9.30;99.90;;;;;;4973363;28;20034;-70
2022/04/28 03:26:07;;;;;;;22.15;11.73;;;9.30;99.90;;;;;;4972948;28;20022;-70
2022/04/28 03:28:37;;;;;;;19.05;10.38;;;9.30;99.90;;;;;;4973217;28;20053;-71
2022/04/28 03:31:03;;;;;;;22.75;12.30;;;9.30;99.90;;;;;;4972997;28;20049;-70
2022/04/28 03:33:29;;;;;;;22.02;11.75;;;9.20;99.90;;;;;;4973292;28;20376;-70
2022/04/28 03:35:55;;;;;;;21.15;12.18;;;9.20;99.90;;;;;;4973089;28;20117;-70
2022/04/28 03:38:21;;;;;;;24.52;11.88;;;9.20;99.90;;;;;;4973170;28;20042;-70
2022/04/28 03:40:46;;;;;;;23.00;10.80;;;9.20;99.90;;;;;;4965326;28;20066;-69
2022/04/28 03:43:12;;;;;;;23.70;12.40;;;9.20;99.90;;;;;;4972513;28;20425;-70
2022/04/28 03:45:38;;;;;;;19.92;11.95;;;9.20;99.90;;;;;;4956702;28;20041;-70
2022/04/28 03:48:09;;;;;;;25.90;12.32;;;9.10;99.90;;;;;;4953166;29;20031;-72
2022/04/28 03:50:36;;;;;;;17.90;11.23;;;9.10;99.90;;;;;;4952821;28;20022;-70
2022/04/28 03:53:02;;;;;;;22.42;11.15;;;9.10;99.90;;;;;;4953652;29;20640;-70
2022/04/28 03:55:27;;;;;;;19.33;10.50;;;9.10;99.90;;;;;;4962760;28;20131;-70
2022/04/28 03:57:53;;;;;;;22.15;10.95;;;9.10;99.90;;;;;;4972869;28;20472;-70
2022/04/28 04:00:20;;;;;;;20.23;11.88;;;9.10;99.90;;;;;;4972449;28;20030;-70
2022/04/28 04:02:47;;;;;;;25.58;12.07;;;9.00;99.90;;;;;;4972704;28;20030;-70
2022/04/28 04:05:13;;;;;;;16.35;10.25;;;9.00;99.90;;;;;;4972045;28;20072;-70
2022/04/28 04:07:39;;;;;;;28.42;11.63;;;9.00;99.90;;;;;;4969044;28;20493;-70
2022/04/28 04:10:10;;;;;;;16.58;11.20;;;9.00;99.90;;;;;;4971545;28;20050;-70
2022/04/28 04:12:36;;;;;;;21.98;12.13;;;9.00;99.90;;;;;;4970688;28;20454;-69
2022/04/28 04:15:03;;;;;;;21.25;12.45;;;9.00;99.90;;;;;;4971906;28;20050;-70
2022/04/28 04:17:29;;;;;;;18.52;11.32;;;9.00;99.90;;;;;;4972302;28;20058;-70
2022/04/28 04:19:55;;;;;;;24.10;11.75;;;8.90;99.90;;;;;;4971414;28;20511;-70
2022/04/28 04:22:21;;;;;;;24.25;13.32;;;8.90;99.90;;;;;;4971121;28;20062;-70
2022/04/28 04:24:47;;;;;;;24.33;11.85;;;8.80;99.90;;;;;;4972412;28;20390;-68
2022/04/28 04:27:15;;;;;;;28.02;13.77;;;8.90;99.90;;;;;;4972299;28;20059;-68
2022/04/28 04:29:40;;;;;;;25.85;11.85;;;8.80;99.90;;;;;;4972582;28;20038;-70
2022/04/28 04:32:20;;;;;;;20.77;11.93;;;8.70;99.90;;;;;;4971216;28;20466;-70
2022/04/28 04:34:47;;;;;;;26.63;13.10;;;8.70;99.90;;;;;;4971846;28;20026;-70
2022/04/28 04:37:13;;;;;;;24.90;12.63;;;8.70;99.90;;;;;;4972615;28;20052;-70
2022/04/28 04:39:40;;;;;;;24.38;11.80;;;8.70;99.90;;;;;;4957293;28;20456;-71
2022/04/28 04:42:07;;;;;;;20.25;12.75;;;8.70;99.90;;;;;;4962385;28;20039;-71
2022/04/28 04:44:33;;;;;;;28.50;13.50;;;8.70;99.90;;;;;;4971578;28;20023;-71
2022/04/28 04:46:58;;;;;;;21.40;12.27;;;8.80;99.90;;;;;;4972767;28;20394;-71
2022/04/28 04:49:24;;;;;;;29.25;12.40;;;8.80;99.90;;;;;;4972092;28;20031;-70
2022/04/28 04:51:50;;;;;;;20.80;13.10;;;8.80;99.90;;;;;;4971677;28;20072;-71
2022/04/28 04:54:15;;;;;;;24.08;13.80;;;8.80;99.90;;;;;;4971612;28;20475;-70
2022/04/28 04:56:41;;;;;;;22.85;13.13;;;8.80;99.90;;;;;;4971837;28;20031;-70
2022/04/28 04:59:07;;;;;;;28.77;13.55;;;8.80;99.90;;;;;;4971628;28;20026;-71
2022/04/28 05:01:32;;;;;;;23.75;13.88;;;8.80;99.90;;;;;;4971420;28;20054;-70
2022/04/28 05:03:58;;;;;;;22.83;14.80;;;8.80;99.90;;;;;;4971635;28;20035;-71
2022/04/28 05:06:24;;;;;;;24.85;14.13;;;8.80;99.90;;;;;;4971753;28;20027;-71
2022/04/28 05:08:49;;;;;;;22.33;13.30;;;8.80;99.90;;;;;;4971644;28;20031;-71
2022/04/28 05:11:16;;;;;;;27.73;13.52;;;8.80;99.90;;;;;;4971309;28;20114;-71
2022/04/28 05:13:42;;;;;;;25.02;13.38;;;8.80;99.90;;;;;;4971462;28;20047;-70
2022/04/28 05:16:07;;;;;;;28.40;13.80;;;8.80;99.90;;;;;;4971334;28;20034;-71
2022/04/28 05:18:33;;;;;;;26.98;13.80;;;8.80;99.90;;;;;;4971259;28;20027;-70
2022/04/28 05:20:59;;;;;;;27.15;13.80;;;8.80;99.90;;;;;;4971429;28;20391;-71
2022/04/28 05:23:25;;;;;;;25.35;14.35;;;8.80;99.90;;;;;;4970734;28;20038;-70
2022/04/28 05:25:51;;;;;;;30.08;13.27;;;8.90;99.90;;;;;;4972009;28;20391;-70
2022/04/28 05:28:16;;;;;;;24.20;13.75;;;8.80;99.90;;;;;;4972184;28;20052;-71
2022/04/28 05:30:42;;;;;;;23.23;12.48;;;8.80;99.90;;;;;;4972120;28;20081;-70
2022/04/28 05:33:08;;;;;;;19.88;12.75;;;8.80;99.90;;;;;;4971084;28;20433;-70
2022/04/28 05:35:39;;;;;;;25.13;13.73;;;8.90;99.90;;;;;;4971445;28;20509;-71
2022/04/28 05:38:07;;;;;;;22.45;13.27;;;8.90;99.90;;;;;;4971858;28;20438;-70
2022/04/28 05:40:33;;;;;;;23.13;12.77;;;8.90;99.90;;;;;;4971771;28;20463;-71
2022/04/28 05:45:42;;;;;;;28.80;13.60;;;9.00;99.90;;;;;;4971837;28;20038;-70
2022/04/28 05:48:13;;;;;;;25.92;12.43;;;9.10;99.90;;;;;;4971873;28;20031;-71
2022/04/28 05:50:40;;;;;;;23.63;12.15;;;9.20;99.90;;;;;;4971027;28;20076;-71
2022/04/28 05:53:05;;;;;;;29.65;12.98;;;9.10;99.90;;;;;;4971245;28;20045;-71
2022/04/28 05:55:31;;;;;;;26.00;13.02;;;9.20;99.90;;;;;;4971783;28;20027;-71
2022/04/28 05:57:59;;;;;;;25.08;12.27;;;9.10;99.90;;;;;;4971647;28;20471;-71
2022/04/28 06:00:28;;;;;;;27.42;13.40;;;9.10;99.90;;;;;;4970345;28;20018;-71
2022/04/28 06:02:54;;;;;;;21.45;12.77;;;9.20;99.90;;;;;;4971048;28;20423;-70
2022/04/28 06:05:20;;;;;;;27.10;12.00;;;9.20;99.90;;;;;;4970675;28;20022;-70
2022/04/28 06:07:46;;;;;;;28.02;12.32;;;9.30;99.90;;;;;;4970822;28;20540;-71
2022/04/28 06:10:13;;;;;;;23.83;11.73;;;9.30;99.90;;;;;;4971523;28;20030;-71
2022/04/28 06:12:40;;;;;;;23.60;12.55;;;9.30;99.90;;;;;;4970453;28;20038;-71
2022/04/28 06:15:06;;;;;;;23.58;11.93;;;9.40;99.90;;;;;;4971674;28;20034;-71
2022/04/28 06:17:32;;;;;;;27.05;12.75;;;9.40;99.90;;;;;;4971621;28;20048;-71
2022/04/28 06:19:58;;;;;;;21.42;12.25;;;9.50;99.90;;;;;;4971064;28;20018;-70
2022/04/28 06:22:23;;;;;;;27.70;12.32;;;9.50;99.90;;;;;;4970451;28;20483;-71
2022/04/28 06:24:56;;;;;;;21.20;12.15;;;9.50;99.90;;;;;;4970966;28;20437;-70
2022/04/28 06:27:22;;;;;;;22.40;11.95;;;9.60;99.90;;;;;;4971041;28;20026;-71
2022/04/28 06:29:49;;;;;;;23.92;13.15;;;9.60;99.90;;;;;;4970178;28;20027;-71
2022/04/28 06:32:18;;;;;;;25.25;12.15;;;9.70;99.90;;;;;;4970582;28;20027;-71
2022/04/28 06:34:45;;;;;;;21.95;12.07;;;9.80;99.90;;;;;;4971065;28;20070;-71
2022/04/28 06:37:11;;;;;;;23.90;11.98;;;9.80;99.90;;;;;;4970900;28;20491;-71
2022/04/28 06:39:37;;;;;;;21.48;11.82;;;9.90;99.90;;;;;;4970584;28;20023;-71
2022/04/28 06:42:03;;;;;;;19.63;12.05;;;9.90;99.90;;;;;;4969885;28;20034;-71
2022/04/28 06:44:29;;;;;;;22.50;12.77;;;10.00;99.90;;;;;;4970347;28;20031;-71
2022/04/28 06:46:55;;;;;;;22.90;12.15;;;10.10;99.90;;;;;;4972498;28;20081;-71
2022/04/28 06:49:20;;;;;;;24.75;12.43;;;10.20;99.90;;;;;;4972673;28;20051;-72
2022/04/28 06:51:46;;;;;;;30.65;13.55;;;10.30;99.90;;;;;;4974273;28;20031;-72
2022/04/28 06:54:12;;;;;;;29.75;12.60;;;10.30;99.90;;;;;;4973128;28;20035;-71
2022/04/28 06:56:38;;;;;;;24.27;12.90;;;10.40;99.90;;;;;;4969823;28;20027;-69
2022/04/28 06:59:04;;;;;;;23.20;12.10;;;10.50;99.90;;;;;;4931793;28;20160;-71
2022/04/28 07:01:31;;;;;;;25.80;12.18;;;10.60;99.90;;;;;;4960808;28;20374;-69
2022/04/28 07:03:56;;;;;;;21.27;12.57;;;10.80;99.90;;;;;;4962894;28;20023;-70
2022/04/28 07:06:22;;;;;;;29.55;12.43;;;10.80;99.90;;;;;;4963242;28;20042;-70
2022/04/28 07:08:48;;;;;;;24.92;12.75;;;10.90;99.90;;;;;;4963111;28;20031;-71
2022/04/28 07:11:13;;;;;;;19.77;12.25;;;11.00;99.90;;;;;;4961773;28;20375;-71
2022/04/28 07:13:39;;;;;;;22.38;11.23;;;11.10;99.90;;;;;;4962834;28;20418;-72
2022/04/28 07:16:05;;;;;;;20.58;10.70;;;11.20;99.90;;;;;;4962511;28;20110;-72
2022/04/28 07:18:31;;;;;;;20.40;12.43;;;11.20;99.90;;;;;;4961285;28;20023;-69
2022/04/28 07:20:59;;;;;;;26.48;11.77;;;11.20;99.90;;;;;;4964346;28;20576;-70
2022/04/28 07:23:25;;;;;;;21.95;12.23;;;11.40;99.90;;;;;;4965570;28;20034;-70
2022/04/28 07:25:50;;;;;;;21.80;11.75;;;11.50;99.90;;;;;;4968109;28;20034;-70
2022/04/28 07:28:16;;;;;;;26.35;13.18;;;11.50;99.90;;;;;;4969159;28;20512;-70
2022/04/28 07:30:41;;;;;;;16.38;11.60;;;11.70;99.90;;;;;;4970717;28;20074;-70
2022/04/28 07:33:08;;;;;;;17.38;11.52;;;11.80;99.90;;;;;;4971693;28;20039;-70
2022/04/28 07:35:34;;;;;;;21.17;11.55;;;11.90;99.90;;;;;;4967295;28;20371;-70
2022/04/28 07:38:00;;;;;;;19.40;11.25;;;12.00;99.90;;;;;;4969079;28;20088;-70
2022/04/28 07:40:26;;;;;;;20.70;11.52;;;12.10;99.90;;;;;;4967899;28;20035;-70
2022/04/28 07:42:51;;;;;;;24.75;11.35;;;12.30;99.90;;;;;;4970213;28;20483;-70
2022/04/28 07:45:17;;;;;;;25.52;11.88;;;12.50;99.90;;;;;;4968878;28;20101;-70
2022/04/28 07:47:43;;;;;;;19.83;12.15;;;12.70;99.90;;;;;;4967887;28;20065;-70
2022/04/28 07:50:10;;;;;;;21.90;11.38;;;12.90;99.90;;;;;;4968218;28;20023;-70
2022/04/28 07:52:37;;;;;;;19.75;10.50;;;13.10;99.90;;;;;;4968576;28;20050;-70
2022/04/28 07:55:03;;;;;;;21.40;10.95;;;13.20;99.90;;;;;;4970893;28;20019;-70
2022/04/28 07:57:28;;;;;;;24.30;11.48;;;13.20;99.90;;;;;;4970028;28;20030;-70
2022/04/28 07:59:54;;;;;;;24.55;12.00;;;13.30;99.90;;;;;;4967051;28;20031;-69
2022/04/28 08:02:20;;;;;;;22.90;11.27;;;13.20;99.90;;;;;;4969423;28;20030;-69
2022/04/28 08:04:45;;;;;;;27.65;11.90;;;13.30;99.60;;;;;;4970387;28;20070;-70
2022/04/28 08:07:11;;;;;;;27.20;11.80;;;13.50;99.60;;;;;;4970169;28;20030;-70
2022/04/28 08:09:36;;;;;;;20.50;11.05;;;13.60;99.90;;;;;;4969841;28;20467;-70
2022/04/28 08:12:02;;;;;;;21.02;11.55;;;13.70;99.90;;;;;;4967093;28;20077;-69
2022/04/28 08:14:28;;;;;;;19.25;11.15;;;13.90;99.70;;;;;;4969036;28;20042;-69
2022/04/28 08:16:55;;;;;;;23.90;10.70;;;14.00;99.30;;;;;;4970225;28;20015;-69
2022/04/28 08:19:21;;;;;;;22.73;11.00;;;14.20;99.10;;;;;;4971968;28;20027;-69
2022/04/28 08:21:47;;;;;;;25.80;12.27;;;14.30;98.30;;;;;;4956579;28;20440;-70
2022/04/28 08:24:13;;;;;;;20.90;11.05;;;14.40;98.40;;;;;;4971207;28;20019;-69
2022/04/28 08:26:39;;;;;;;20.23;12.07;;;14.50;98.70;;;;;;4967497;28;20106;-69
2022/04/28 08:29:05;;;;;;;23.10;11.43;;;14.60;97.60;;;;;;4969696;28;20157;-71
2022/04/28 08:31:31;;;;;;;22.92;11.93;;;14.70;98.10;;;;;;4969204;28;20026;-71
2022/04/28 08:33:57;;;;;;;23.05;11.80;;;14.70;98.00;;;;;;4969560;28;20042;-71
2022/04/28 08:36:23;;;;;;;21.30;12.23;;;14.70;98.30;;;;;;4968730;28;20387;-71
2022/04/28 08:38:49;;;;;;;25.67;11.68;;;14.80;97.40;;;;;;4970167;28;20388;-70
2022/04/28 08:41:25;;;;;;;22.52;11.73;;;15.00;98.10;;;;;;4969436;28;20490;-70
2022/04/28 08:43:51;;;;;;;19.23;11.65;;;15.20;97.40;;;;;;4970209;28;20167;-70
2022/04/28 08:49:00;;;;;;;16.90;10.82;;;15.60;97.50;;;;;;4967559;28;20091;-71
2022/04/28 08:51:26;;;;;;;28.02;10.95;;;15.70;97.40;;;;;;4976868;28;20428;-71
2022/04/28 08:53:53;;;;;;;15.95;11.20;;;15.80;97.30;;;;;;4970581;28;20459;-72
2022/04/28 08:56:21;;;;;;;21.33;11.00;;;16.00;97.40;;;;;;4969918;28;20557;-71
2022/04/28 08:58:47;;;;;;;21.73;10.82;;;16.10;97.00;;;;;;4969714;28;20033;-71
2022/04/28 09:01:13;;;;;;;14.50;9.30;;;16.20;96.50;;;;;;4966439;28;20023;-70
2022/04/28 09:03:40;;;;;;;13.20;9.77;;;16.30;95.90;;;;;;4968534;28;20423;-71
2022/04/28 09:06:34;;;;;;;20.33;10.57;;;16.40;96.30;;;;;;4970057;28;20547;-69
2022/04/28 09:09:05;;;;;;;19.85;11.25;;;16.60;95.30;;;;;;4969480;28;20125;-71
2022/04/28 09:11:34;;;;;;;19.45;10.48;;;16.60;96.50;;;;;;4969015;28;20030;-72
2022/04/28 09:14:09;;;;;;;18.23;9.95;;;16.70;96.40;;;;;;4970207;28;20070;-72
2022/04/28 09:16:41;;;;;;;17.85;10.60;;;16.80;96.30;;;;;;4968826;28;20023;-72
2022/04/28 09:19:08;;;;;;;19.48;11.18;;;17.00;95.40;;;;;;4965280;28;20034;-71
2022/04/28 09:21:35;;;;;;;19.48;10.73;;;17.20;94.50;;;;;;4961745;28;20080;-71
2022/04/28 09:24:03;;;;;;;17.55;10.48;;;17.20;94.20;;;;;;4968748;28;20428;-72
2022/04/28 09:26:30;;;;;;;20.80;10.82;;;17.20;93.90;;;;;;4968927;28;20027;-72
2022/04/28 09:28:57;;;;;;;19.13;11.07;;;17.20;94.50;;;;;;4969503;28;20030;-72
2022/04/28 09:31:23;;;;;;;16.83;11.10;;;17.30;95.00;;;;;;4967947;28;20387;-72
2022/04/28 09:33:49;;;;;;;16.10;9.65;;;17.40;94.50;;;;;;4968968;28;20031;-72
2022/04/28 09:36:16;;;;;;;24.02;11.98;;;17.40;94.80;;;;;;4967336;28;20029;-71
2022/04/28 09:38:41;;;;;;;15.18;11.07;;;17.30;93.70;;;;;;4969552;28;20029;-71
2022/04/28 09:43:56;;;;;;;19.23;11.75;;;17.20;92.90;;;;;;4968357;28;20092;-72
2022/04/28 09:46:25;;;;;;;21.48;12.85;;;17.60;93.40;;;;;;4966316;28;20438;-71
2022/04/28 09:48:52;;;;;;;21.35;12.88;;;17.70;93.40;;;;;;4968126;28;20067;-71
2022/04/28 09:51:23;;;;;;;16.65;11.32;;;17.80;93.10;;;;;;4968272;28;20517;-71
2022/04/28 09:53:53;;;;;;;20.27;11.18;;;17.90;93.70;;;;;;4968842;28;20038;-70
2022/04/28 09:56:24;;;;;;;19.20;12.45;;;17.80;92.90;;;;;;4969599;28;20027;-72
2022/04/28 09:58:51;;;;;;;20.50;10.98;;;18.00;92.90;;;;;;4968929;28;20038;-70
2022/04/28 10:01:17;;;;;;;21.63;11.82;;;18.00;91.80;;;;;;4969362;28;20467;-72
2022/04/28 10:03:43;;;;;;;18.63;11.43;;;18.10;92.50;;;;;;4968715;28;20058;-72
2022/04/28 10:06:09;;;;;;;16.23;11.05;;;18.20;92.80;;;;;;4968550;28;20026;-71
2022/04/28 10:08:36;;;;;;;20.95;11.73;;;18.30;93.00;;;;;;4969335;28;20486;-72
2022/04/28 10:11:06;;;;;;;18.90;11.15;;;18.40;93.10;;;;;;4969050;28;20143;-71
2022/04/28 10:13:33;;;;;;;17.45;11.15;;;18.50;93.20;;;;;;4967459;28;20047;-72
2022/04/28 10:16:09;;;;;;;19.85;11.45;;;18.60;91.50;;;;;;4967007;28;20375;-71
2022/04/28 10:18:49;;;;;;;19.52;11.73;;;18.70;91.80;;;;;;4967758;28;20498;-72
2022/04/28 10:21:28;;;;;;;14.93;11.13;;;18.60;91.30;;;;;;4966728;28;20023;-72
2022/04/28 10:32:53;;;;;;;16.02;11.48;;;19.20;90.90;;;;;;4968933;28;20088;-71
2022/04/28 10:35:32;;;;;;;24.52;11.88;;;19.40;91.70;;;;;;4969183;28;20065;-72
2022/04/28 10:38:09;;;;;;;16.08;11.32;;;19.50;91.10;;;;;;4992511;28;20019;-71
2022/04/28 10:40:44;;;;;;;16.25;11.00;;;19.40;90.30;;;;;;4964265;28;20388;-72
2022/04/28 10:43:24;;;;;;;19.75;11.90;;;19.50;90.50;;;;;;4967319;28;20132;-72
2022/04/28 10:45:51;;;;;;;19.73;11.73;;;19.50;90.20;;;;;;4969181;28;20030;-71
2022/04/28 10:48:25;;;;;;;16.42;10.77;;;19.60;90.50;;;;;;4968756;28;20128;-72
2022/04/28 10:51:15;;;;;;;15.52;11.35;;;19.60;90.40;;;;;;4968511;28;20383;-72
2022/04/28 10:54:09;;;;;;;20.63;11.45;;;19.50;90.30;;;;;;4968794;28;20134;-71
2022/04/28 10:56:48;;;;;;;22.38;12.07;;;19.70;89.50;;;;;;4963229;28;20029;-72
2022/04/28 10:59:29;;;;;;;20.13;11.65;;;19.80;90.10;;;;;;4968261;28;20034;-72
2022/04/28 11:02:19;;;;;;;16.33;11.05;;;19.70;90.30;;;;;;4968599;28;20479;-73
2022/04/28 11:04:50;;;;;;;16.67;10.65;;;19.70;90.80;;;;;;4980739;28;20426;-71
2022/04/28 11:07:19;;;;;;;13.43;10.07;;;19.80;91.40;;;;;;4966933;28;20495;-71
2022/04/28 11:09:55;;;;;;;20.38;11.40;;;20.00;91.20;;;;;;4967275;28;20109;-70
2022/04/28 11:12:22;;;;;;;18.77;12.50;;;19.90;91.00;;;;;;4966704;28;20544;-73
2022/04/28 11:15:01;;;;;;;20.88;12.80;;;19.80;90.10;;;;;;4968183;28;20517;-72
2022/04/28 11:17:28;;;;;;;17.83;12.35;;;20.10;91.20;;;;;;4967712;28;20390;-73
2022/04/28 11:19:54;;;;;;;21.23;11.43;;;20.30;89.50;;;;;;4966383;28;20011;-73
2022/04/28 11:22:21;;;;;;;18.13;12.73;;;20.20;90.00;;;;;;4967497;28;20138;-71
2022/04/28 11:24:49;;;;;;;21.30;12.90;;;20.40;89.30;;;;;;4963715;28;20097;-73
2022/04/28 11:27:22;;;;;;;15.60;11.20;;;20.30;90.00;;;;;;4968169;28;20027;-73
2022/04/28 11:29:55;;;;;;;19.67;12.27;;;20.20;89.30;;;;;;4961327;28;20076;-73
2022/04/28 11:32:21;;;;;;;;;;;20.40;90.10;;;;;;4968868;28;20034;-70
2022/04/28 11:34:48;;;;;;;16.85;12.90;;;20.10;89.40;;;;;;4971420;28;19914;-74
2022/04/28 11:37:18;;;;;;;18.63;13.35;;;20.20;87.50;;;;;;4971457;28;20034;-75
2022/04/28 11:39:48;;;;;;;18.30;12.63;;;20.40;87.90;;;;;;4969959;28;20027;-74
2022/04/28 11:42:18;;;;;;;19.95;13.30;;;20.40;87.70;;;;;;4968676;28;20114;-73
2022/04/28 11:44:47;;;;;;;18.27;13.75;;;20.50;87.10;;;;;;4967216;28;20057;-73
2022/04/28 11:47:13;;;;;;;18.40;13.23;;;20.70;88.70;;;;;;4969579;28;20041;-73
2022/04/28 11:49:39;;;;;;;17.23;13.55;;;20.80;89.80;;;;;;4969922;28;20395;-73
2022/04/28 11:52:21;;;;;;;21.13;13.68;;;20.90;87.30;;;;;;4971157;28;20023;-73
2022/04/28 11:55:19;;;;;;;18.02;12.32;;;20.90;87.50;;;;;;4963741;28;20085;-73
2022/04/28 11:57:45;;;;;;;19.70;13.02;;;20.80;85.90;;;;;;4975063;28;20037;-74
2022/04/28 12:00:12;;;;;;;16.23;12.25;;;20.70;88.10;;;;;;4967541;28;20057;-72
2022/04/28 12:02:39;;;;;;;22.80;13.45;;;20.90;87.50;;;;;;4967774;28;20015;-73
2022/04/28 12:05:16;;;;;;;16.25;11.38;;;21.00;84.70;;;;;;4970314;28;20030;-74
2022/04/28 12:08:02;;;;;;;22.35;11.60;;;21.10;84.40;;;;;;4968851;28;20033;-74
2022/04/28 12:15:59;;;;;;;17.42;12.93;;;21.30;83.00;;;;;;4971201;28;20232;-74
2022/04/28 12:21:21;;;;;;;18.20;13.23;;;21.40;83.30;;;;;;4971459;28;20034;-74
2022/04/28 12:23:50;;;;;;;17.05;11.82;;;21.40;82.90;;;;;;4971258;28;20117;-74
2022/04/28 12:26:19;;;;;;;16.00;11.60;;;21.50;82.50;;;;;;4970815;28;20031;-74
2022/04/28 12:28:46;;;;;;;17.77;12.02;;;21.70;83.70;;;;;;4971159;28;20052;-73
2022/04/28 12:31:25;;;;;;;13.98;11.48;;;21.70;82.30;;;;;;4971018;28;20073;-73
2022/04/28 12:33:50;;;;;;;18.33;11.68;;;21.50;83.50;;;;;;4969955;28;20030;-74
2022/04/28 12:36:16;;;;;;;17.52;10.40;;;21.50;80.50;;;;;;4970223;28;20505;-74
2022/04/28 12:38:49;;;;;;;18.70;11.75;;;21.50;81.50;;;;;;4970153;28;20018;-74
2022/04/28 12:41:17;;;;;;;15.65;11.70;;;21.60;80.30;;;;;;4970611;28;20030;-73
2022/04/28 12:43:48;;;;;;;17.52;10.65;;;21.60;83.50;;;;;;4970126;28;20399;-74
2022/04/28 12:46:18;;;;;;;17.50;10.80;;;21.80;79.30;;;;;;4968916;28;20035;-74
2022/04/28 12:48:54;;;;;;;16.85;9.80;;;21.80;79.90;;;;;;4970374;28;20031;-75
2022/04/28 12:51:22;;;;;;;14.60;11.70;;;21.70;78.30;;;;;;4966552;28;20031;-73
2022/04/28 12:53:49;;;;;;;15.15;11.70;;;21.50;80.50;;;;;;4968036;28;20049;-73
2022/04/28 12:56:27;;;;;;;17.75;11.73;;;21.50;81.50;;;;;;4968649;28;20127;-73
2022/04/28 12:58:58;;;;;;;17.33;11.85;;;21.50;81.70;;;;;;4963333;28;20043;-74
2022/04/28 13:01:24;;;;;;;13.75;10.38;;;21.20;82.00;;;;;;4969550;28;20027;-72
2022/04/28 13:04:00;;;;;;;18.33;10.63;;;21.40;80.40;;;;;;4965667;28;20413;-72
2022/04/28 13:06:28;;;;;;;14.57;11.25;;;21.70;83.40;;;;;;4966356;28;20035;-71
2022/04/28 13:08:56;;;;;;;12.75;9.57;;;21.80;81.70;;;;;;4964599;28;20019;-71
2022/04/28 13:11:25;;;;;;;14.40;11.23;;;21.80;81.30;;;;;;4969204;28;20080;-73
2022/04/28 13:13:52;;;;;;;17.30;12.02;;;21.90;78.40;;;;;;4966596;28;20034;-72